sensor_id;sensor_type;location;lat;lon;timestamp;temperature;humidity
8565;DHT22;4320;51.498;6.556;2022-12-29T00:02:17;12.20;1.00
8565;DHT22;4320;51.498;6.556;2022-12-29T00:04:43;12.10;1.00
8565;DHT22;4320;51.498;6.556;2022-12-29T00:07:11;12.10;1.00
8565;DHT22;4320;51.498;6.556;2022-12-29T00:09:36;12.10;1.00
8565;DHT22;4320;51.498;6.556;2022-12-29T00:12:03;11.90;1.00
8565;DHT22;4320;51.498;6.556;2022-12-29T00:14:29;11.90;1.00
8565;DHT22;4320;51.498;6.556;2022-12-29T00:17:14;11.80;1.00
8565;DHT22;4320;51.498;6.556;2022-12-29T00:19:40;11.80;1.00
8565;DHT22;4320;51.498;6.556;2022-12-29T00:22:25;11.70;1.00
8565;DHT22;4320;51.498;6.556;2022-12-29T00:25:10;11.70;1.00
8565;DHT22;4320;51.498;6.556;2022-12-29T00:27:55;11.70;1.00
8565;DHT22;4320;51.498;6.556;2022-12-29T00:30:39;11.70;1.00
8565;DHT22;4320;51.498;6.556;2022-12-29T00:33:32;11.70;1.00
8565;DHT22;4320;51.498;6.556;2022-12-29T00:38:51;11.70;1.00
8565;DHT22;4320;51.498;6.556;2022-12-29T00:41:37;11.80;1.00
8565;DHT22;4320;51.498;6.556;2022-12-29T00:44:21;11.80;1.00
8565;DHT22;4320;51.498;6.556;2022-12-29T00:46:46;11.90;1.00
8565;DHT22;4320;51.498;6.556;2022-12-29T00:49:13;11.90;1.00
8565;DHT22;4320;51.498;6.556;2022-12-29T00:52:09;11.90;1.00
8565;DHT22;4320;51.498;6.556;2022-12-29T00:54:37;11.90;1.00
8565;DHT22;4320;51.498;6.556;2022-12-29T00:57:04;11.90;1.00
8565;DHT22;4320;51.498;6.556;2022-12-29T00:59:31;11.80;1.00
8565;DHT22;4320;51.498;6.556;2022-12-29T01:01:57;11.80;1.00
8565;DHT22;4320;51.498;6.556;2022-12-29T01:04:25;11.80;1.00
8565;DHT22;4320;51.498;6.556;2022-12-29T01:06:51;11.70;1.00
8565;DHT22;4320;51.498;6.556;2022-12-29T01:09:18;11.70;1.00
8565;DHT22;4320;51.498;6.556;2022-12-29T01:12:03;11.70;1.00
8565;DHT22;4320;51.498;6.556;2022-12-29T01:14:29;11.70;1.00
8565;DHT22;4320;51.498;6.556;2022-12-29T01:16:55;11.70;1.00
8565;DHT22;4320;51.498;6.556;2022-12-29T01:19:21;11.70;1.00
8565;DHT22;4320;51.498;6.556;2022-12-29T01:21:47;11.70;1.00
8565;DHT22;4320;51.498;6.556;2022-12-29T01:24:14;11.80;1.00
8565;DHT22;4320;51.498;6.556;2022-12-29T01:26:40;11.80;1.00
8565;DHT22;4320;51.498;6.556;2022-12-29T01:29:06;11.90;1.00
8565;DHT22;4320;51.498;6.556;2022-12-29T01:31:32;11.90;1.00
8565;DHT22;4320;51.498;6.556;2022-12-29T01:33:57;11.90;1.00
8565;DHT22;4320;51.498;6.556;2022-12-29T01:36:24;12.00;1.00
8565;DHT22;4320;51.498;6.556;2022-12-29T01:38:50;12.00;1.00
8565;DHT22;4320;51.498;6.556;2022-12-29T01:41:16;12.00;1.00
8565;DHT22;4320;51.498;6.556;2022-12-29T01:48:48;12.20;1.00
8565;DHT22;4320;51.498;6.556;2022-12-29T01:51:16;12.20;1.00
8565;DHT22;4320;51.498;6.556;2022-12-29T01:53:43;12.20;1.00
8565;DHT22;4320;51.498;6.556;2022-12-29T01:56:11;12.30;1.00
8565;DHT22;4320;51.498;6.556;2022-12-29T01:58:39;12.30;1.00
8565;DHT22;4320;51.498;6.556;2022-12-29T02:01:07;12.30;1.00
8565;DHT22;4320;51.498;6.556;2022-12-29T02:03:33;12.30;99.90
8565;DHT22;4320;51.498;6.556;2022-12-29T02:06:12;12.30;99.90
8565;DHT22;4320;51.498;6.556;2022-12-29T02:08:39;12.30;99.90
8565;DHT22;4320;51.498;6.556;2022-12-29T02:11:06;12.30;99.90
8565;DHT22;4320;51.498;6.556;2022-12-29T02:13:32;12.30;99.90
8565;DHT22;4320;51.498;6.556;2022-12-29T02:26:43;12.40;99.90
8565;DHT22;4320;51.498;6.556;2022-12-29T02:29:41;12.40;99.90
8565;DHT22;4320;51.498;6.556;2022-12-29T02:35:44;12.40;99.90
8565;DHT22;4320;51.498;6.556;2022-12-29T02:43:35;12.40;99.90
8565;DHT22;4320;51.498;6.556;2022-12-29T02:49:11;12.40;99.90
8565;DHT22;4320;51.498;6.556;2022-12-29T02:51:44;12.40;99.90
8565;DHT22;4320;51.498;6.556;2022-12-29T02:54:11;12.40;99.90
8565;DHT22;4320;51.498;6.556;2022-12-29T02:56:55;12.50;99.90
8565;DHT22;4320;51.498;6.556;2022-12-29T02:59:21;12.50;99.90
8565;DHT22;4320;51.498;6.556;2022-12-29T03:05:14;12.40;99.90
8565;DHT22;4320;51.498;6.556;2022-12-29T03:16:28;12.40;99.90
8565;DHT22;4320;51.498;6.556;2022-12-29T03:19:02;12.40;99.90
8565;DHT22;4320;51.498;6.556;2022-12-29T03:21:48;12.40;99.90
8565;DHT22;4320;51.498;6.556;2022-12-29T03:24:38;12.40;99.90
8565;DHT22;4320;51.498;6.556;2022-12-29T03:27:07;12.40;99.90
8565;DHT22;4320;51.498;6.556;2022-12-29T03:29:39;12.30;99.90
8565;DHT22;4320;51.498;6.556;2022-12-29T03:32:07;12.20;99.90
8565;DHT22;4320;51.498;6.556;2022-12-29T03:34:35;12.10;99.90
8565;DHT22;4320;51.498;6.556;2022-12-29T03:37:14;12.10;1.00
8565;DHT22;4320;51.498;6.556;2022-12-29T03:39:41;12.10;1.00
8565;DHT22;4320;51.498;6.556;2022-12-29T03:42:14;12.10;1.00
8565;DHT22;4320;51.498;6.556;2022-12-29T03:44:42;12.10;1.00
8565;DHT22;4320;51.498;6.556;2022-12-29T03:47:10;12.10;1.00
8565;DHT22;4320;51.498;6.556;2022-12-29T03:49:37;12.10;1.00
8565;DHT22;4320;51.498;6.556;2022-12-29T03:52:02;12.00;1.00
8565;DHT22;4320;51.498;6.556;2022-12-29T03:54:29;12.00;1.00
8565;DHT22;4320;51.498;6.556;2022-12-29T03:56:54;12.00;1.00
8565;DHT22;4320;51.498;6.556;2022-12-29T03:59:20;12.00;1.00
8565;DHT22;4320;51.498;6.556;2022-12-29T04:01:46;11.90;1.00
8565;DHT22;4320;51.498;6.556;2022-12-29T04:04:11;11.90;1.00
8565;DHT22;4320;51.498;6.556;2022-12-29T04:06:37;11.90;1.00
8565;DHT22;4320;51.498;6.556;2022-12-29T04:09:03;11.90;1.00
8565;DHT22;4320;51.498;6.556;2022-12-29T04:11:28;11.90;1.00
8565;DHT22;4320;51.498;6.556;2022-12-29T04:13:54;11.90;1.00
8565;DHT22;4320;51.498;6.556;2022-12-29T04:16:20;11.90;1.00
8565;DHT22;4320;51.498;6.556;2022-12-29T04:18:45;11.90;1.00
8565;DHT22;4320;51.498;6.556;2022-12-29T04:21:11;11.90;1.00
8565;DHT22;4320;51.498;6.556;2022-12-29T04:23:38;11.80;1.00
8565;DHT22;4320;51.498;6.556;2022-12-29T04:26:05;11.80;1.00
8565;DHT22;4320;51.498;6.556;2022-12-29T04:28:35;11.80;1.00
8565;DHT22;4320;51.498;6.556;2022-12-29T04:31:02;11.70;1.00
8565;DHT22;4320;51.498;6.556;2022-12-29T04:33:28;11.60;1.00
8565;DHT22;4320;51.498;6.556;2022-12-29T04:35:54;11.50;1.00
8565;DHT22;4320;51.498;6.556;2022-12-29T04:38:21;11.20;1.00
8565;DHT22;4320;51.498;6.556;2022-12-29T04:40:48;10.90;1.00
8565;DHT22;4320;51.498;6.556;2022-12-29T04:43:13;10.80;1.00
8565;DHT22;4320;51.498;6.556;2022-12-29T04:45:43;10.70;1.00
8565;DHT22;4320;51.498;6.556;2022-12-29T04:48:12;10.60;1.00
8565;DHT22;4320;51.498;6.556;2022-12-29T04:50:39;10.50;1.00
8565;DHT22;4320;51.498;6.556;2022-12-29T04:53:05;10.60;1.00
8565;DHT22;4320;51.498;6.556;2022-12-29T04:55:30;10.50;1.00
8565;DHT22;4320;51.498;6.556;2022-12-29T04:57:56;10.50;1.00
8565;DHT22;4320;51.498;6.556;2022-12-29T05:00:22;10.40;1.00
8565;DHT22;4320;51.498;6.556;2022-12-29T05:02:47;10.30;1.00
8565;DHT22;4320;51.498;6.556;2022-12-29T05:05:13;10.30;1.00
8565;DHT22;4320;51.498;6.556;2022-12-29T05:07:39;10.40;1.00
8565;DHT22;4320;51.498;6.556;2022-12-29T05:10:06;10.40;1.00
8565;DHT22;4320;51.498;6.556;2022-12-29T05:12:32;10.40;1.00
8565;DHT22;4320;51.498;6.556;2022-12-29T05:14:58;10.30;1.00
8565;DHT22;4320;51.498;6.556;2022-12-29T05:17:24;10.40;1.00
8565;DHT22;4320;51.498;6.556;2022-12-29T05:19:50;10.40;1.00
8565;DHT22;4320;51.498;6.556;2022-12-29T05:22:16;10.40;1.00
8565;DHT22;4320;51.498;6.556;2022-12-29T05:24:44;10.40;1.00
8565;DHT22;4320;51.498;6.556;2022-12-29T05:27:10;10.50;1.00
8565;DHT22;4320;51.498;6.556;2022-12-29T05:29:35;10.50;1.00
8565;DHT22;4320;51.498;6.556;2022-12-29T05:32:01;10.60;1.00
8565;DHT22;4320;51.498;6.556;2022-12-29T05:34:27;10.60;1.00
8565;DHT22;4320;51.498;6.556;2022-12-29T05:36:52;10.60;1.00
8565;DHT22;4320;51.498;6.556;2022-12-29T05:39:18;10.60;1.00
8565;DHT22;4320;51.498;6.556;2022-12-29T05:41:44;10.60;1.00
8565;DHT22;4320;51.498;6.556;2022-12-29T05:44:11;10.60;1.00
8565;DHT22;4320;51.498;6.556;2022-12-29T05:46:36;10.70;1.00
8565;DHT22;4320;51.498;6.556;2022-12-29T05:49:02;10.70;1.00
8565;DHT22;4320;51.498;6.556;2022-12-29T05:51:28;10.80;1.00
8565;DHT22;4320;51.498;6.556;2022-12-29T05:53:53;10.80;1.00
8565;DHT22;4320;51.498;6.556;2022-12-29T05:56:19;10.80;1.00
8565;DHT22;4320;51.498;6.556;2022-12-29T05:58:45;10.90;1.00
8565;DHT22;4320;51.498;6.556;2022-12-29T06:01:10;10.90;1.00
8565;DHT22;4320;51.498;6.556;2022-12-29T06:03:36;10.90;1.00
8565;DHT22;4320;51.498;6.556;2022-12-29T06:06:01;10.90;1.00
8565;DHT22;4320;51.498;6.556;2022-12-29T06:08:27;10.90;1.00
8565;DHT22;4320;51.498;6.556;2022-12-29T06:10:53;10.90;1.00
8565;DHT22;4320;51.498;6.556;2022-12-29T06:13:20;11.00;1.00
8565;DHT22;4320;51.498;6.556;2022-12-29T06:15:48;11.00;1.00
8565;DHT22;4320;51.498;6.556;2022-12-29T06:18:13;11.00;1.00
8565;DHT22;4320;51.498;6.556;2022-12-29T06:20:39;11.10;1.00
8565;DHT22;4320;51.498;6.556;2022-12-29T06:23:05;11.10;99.90
8565;DHT22;4320;51.498;6.556;2022-12-29T06:25:30;11.10;99.90
8565;DHT22;4320;51.498;6.556;2022-12-29T06:27:57;11.10;99.90
8565;DHT22;4320;51.498;6.556;2022-12-29T06:30:23;11.20;99.90
8565;DHT22;4320;51.498;6.556;2022-12-29T06:32:49;11.20;99.90
8565;DHT22;4320;51.498;6.556;2022-12-29T06:35:15;11.20;99.90
8565;DHT22;4320;51.498;6.556;2022-12-29T06:37:40;11.20;99.90
8565;DHT22;4320;51.498;6.556;2022-12-29T06:40:06;11.20;99.90
8565;DHT22;4320;51.498;6.556;2022-12-29T06:42:32;11.20;99.90
8565;DHT22;4320;51.498;6.556;2022-12-29T06:44:58;11.20;99.90
8565;DHT22;4320;51.498;6.556;2022-12-29T06:47:26;11.30;99.90
8565;DHT22;4320;51.498;6.556;2022-12-29T06:49:51;11.30;99.90
8565;DHT22;4320;51.498;6.556;2022-12-29T06:52:17;11.20;99.90
8565;DHT22;4320;51.498;6.556;2022-12-29T06:54:43;11.20;99.90
8565;DHT22;4320;51.498;6.556;2022-12-29T06:57:08;11.30;99.90
8565;DHT22;4320;51.498;6.556;2022-12-29T06:59:34;11.30;99.90
8565;DHT22;4320;51.498;6.556;2022-12-29T07:02:00;11.30;99.90
8565;DHT22;4320;51.498;6.556;2022-12-29T07:04:27;11.30;99.90
8565;DHT22;4320;51.498;6.556;2022-12-29T07:06:53;11.30;99.90
8565;DHT22;4320;51.498;6.556;2022-12-29T07:09:19;11.20;99.90
8565;DHT22;4320;51.498;6.556;2022-12-29T07:11:44;11.20;99.90
8565;DHT22;4320;51.498;6.556;2022-12-29T07:14:11;11.20;99.90
8565;DHT22;4320;51.498;6.556;2022-12-29T07:16:36;11.20;99.90
8565;DHT22;4320;51.498;6.556;2022-12-29T07:19:03;11.10;99.90
8565;DHT22;4320;51.498;6.556;2022-12-29T07:21:28;11.10;99.90
8565;DHT22;4320;51.498;6.556;2022-12-29T07:23:54;11.10;99.90
8565;DHT22;4320;51.498;6.556;2022-12-29T07:26:20;11.10;99.90
8565;DHT22;4320;51.498;6.556;2022-12-29T07:28:46;11.10;99.90
8565;DHT22;4320;51.498;6.556;2022-12-29T07:31:16;11.20;99.90
8565;DHT22;4320;51.498;6.556;2022-12-29T07:33:43;11.10;99.90
8565;DHT22;4320;51.498;6.556;2022-12-29T07:36:09;11.20;99.90
8565;DHT22;4320;51.498;6.556;2022-12-29T07:38:35;11.20;99.90
8565;DHT22;4320;51.498;6.556;2022-12-29T07:41:00;11.20;99.90
8565;DHT22;4320;51.498;6.556;2022-12-29T07:43:26;11.20;99.90
8565;DHT22;4320;51.498;6.556;2022-12-29T07:45:52;11.30;99.90
8565;DHT22;4320;51.498;6.556;2022-12-29T07:48:17;11.20;99.90
8565;DHT22;4320;51.498;6.556;2022-12-29T07:50:43;11.30;99.90
8565;DHT22;4320;51.498;6.556;2022-12-29T07:53:09;11.30;99.90
8565;DHT22;4320;51.498;6.556;2022-12-29T07:55:34;11.30;99.90
8565;DHT22;4320;51.498;6.556;2022-12-29T07:58:00;11.30;99.90
8565;DHT22;4320;51.498;6.556;2022-12-29T08:00:26;11.30;99.90
8565;DHT22;4320;51.498;6.556;2022-12-29T08:02:51;11.30;99.90
8565;DHT22;4320;51.498;6.556;2022-12-29T08:05:17;11.30;99.90
8565;DHT22;4320;51.498;6.556;2022-12-29T08:07:43;11.30;99.90
8565;DHT22;4320;51.498;6.556;2022-12-29T08:10:10;11.30;99.90
8565;DHT22;4320;51.498;6.556;2022-12-29T08:12:38;11.20;99.90
8565;DHT22;4320;51.498;6.556;2022-12-29T08:15:04;11.30;99.90
8565;DHT22;4320;51.498;6.556;2022-12-29T08:17:30;11.30;99.90
8565;DHT22;4320;51.498;6.556;2022-12-29T08:19:56;11.30;99.90
8565;DHT22;4320;51.498;6.556;2022-12-29T08:22:22;11.40;99.90
8565;DHT22;4320;51.498;6.556;2022-12-29T08:24:48;11.40;99.90
8565;DHT22;4320;51.498;6.556;2022-12-29T08:27:14;11.40;99.90
8565;DHT22;4320;51.498;6.556;2022-12-29T08:29:40;11.50;99.90
8565;DHT22;4320;51.498;6.556;2022-12-29T08:32:06;11.50;99.90
8565;DHT22;4320;51.498;6.556;2022-12-29T08:34:32;11.40;99.90
8565;DHT22;4320;51.498;6.556;2022-12-29T08:36:58;11.40;99.90
8565;DHT22;4320;51.498;6.556;2022-12-29T08:39:23;11.50;99.90
8565;DHT22;4320;51.498;6.556;2022-12-29T08:41:49;11.50;99.90
8565;DHT22;4320;51.498;6.556;2022-12-29T08:44:15;11.50;99.90
8565;DHT22;4320;51.498;6.556;2022-12-29T08:46:40;11.60;99.90
8565;DHT22;4320;51.498;6.556;2022-12-29T08:49:06;11.70;99.90
8565;DHT22;4320;51.498;6.556;2022-12-29T08:51:31;11.70;99.90
8565;DHT22;4320;51.498;6.556;2022-12-29T08:53:58;11.80;99.90
8565;DHT22;4320;51.498;6.556;2022-12-29T08:56:23;11.90;99.90
8565;DHT22;4320;51.498;6.556;2022-12-29T08:58:50;12.00;99.90
8565;DHT22;4320;51.498;6.556;2022-12-29T09:01:16;12.00;99.90
8565;DHT22;4320;51.498;6.556;2022-12-29T09:03:42;12.00;99.90
8565;DHT22;4320;51.498;6.556;2022-12-29T09:06:07;12.10;99.90
8565;DHT22;4320;51.498;6.556;2022-12-29T09:08:33;12.10;99.90
8565;DHT22;4320;51.498;6.556;2022-12-29T09:11:10;12.10;99.90
8565;DHT22;4320;51.498;6.556;2022-12-29T09:13:36;12.10;99.90
8565;DHT22;4320;51.498;6.556;2022-12-29T09:16:03;12.10;99.90
8565;DHT22;4320;51.498;6.556;2022-12-29T09:18:29;12.10;99.90
8565;DHT22;4320;51.498;6.556;2022-12-29T09:20:59;12.00;99.90
8565;DHT22;4320;51.498;6.556;2022-12-29T09:23:26;12.00;99.90
8565;DHT22;4320;51.498;6.556;2022-12-29T09:25:52;12.00;99.90
8565;DHT22;4320;51.498;6.556;2022-12-29T09:28:18;12.00;99.90
8565;DHT22;4320;51.498;6.556;2022-12-29T09:30:44;11.90;99.90
8565;DHT22;4320;51.498;6.556;2022-12-29T09:33:09;11.90;99.90
8565;DHT22;4320;51.498;6.556;2022-12-29T09:35:35;11.80;99.90
8565;DHT22;4320;51.498;6.556;2022-12-29T09:38:01;11.80;99.90
8565;DHT22;4320;51.498;6.556;2022-12-29T09:40:28;11.80;99.90
8565;DHT22;4320;51.498;6.556;2022-12-29T09:43:02;11.80;99.90
8565;DHT22;4320;51.498;6.556;2022-12-29T09:45:33;11.80;99.90
8565;DHT22;4320;51.498;6.556;2022-12-29T09:48:04;11.90;99.90
8565;DHT22;4320;51.498;6.556;2022-12-29T09:50:33;12.10;99.90
8565;DHT22;4320;51.498;6.556;2022-12-29T09:53:09;12.10;99.90
8565;DHT22;4320;51.498;6.556;2022-12-29T09:55:49;12.20;99.90
8565;DHT22;4320;51.498;6.556;2022-12-29T10:00:58;12.30;99.90
8565;DHT22;4320;51.498;6.556;2022-12-29T10:03:47;12.40;99.90
8565;DHT22;4320;51.498;6.556;2022-12-29T10:06:36;12.40;99.90
8565;DHT22;4320;51.498;6.556;2022-12-29T10:09:17;12.50;99.90
8565;DHT22;4320;51.498;6.556;2022-12-29T10:17:00;12.80;99.90
8565;DHT22;4320;51.498;6.556;2022-12-29T10:22:15;12.80;99.90
8565;DHT22;4320;51.498;6.556;2022-12-29T10:24:44;12.70;99.90
8565;DHT22;4320;51.498;6.556;2022-12-29T10:27:13;12.60;99.90
8565;DHT22;4320;51.498;6.556;2022-12-29T10:29:44;12.60;99.90
8565;DHT22;4320;51.498;6.556;2022-12-29T10:35:16;12.90;99.90
8565;DHT22;4320;51.498;6.556;2022-12-29T10:43:20;13.20;99.90
8565;DHT22;4320;51.498;6.556;2022-12-29T10:45:47;13.20;99.90
8565;DHT22;4320;51.498;6.556;2022-12-29T10:48:22;13.40;99.90
8565;DHT22;4320;51.498;6.556;2022-12-29T10:50:50;13.50;99.90
8565;DHT22;4320;51.498;6.556;2022-12-29T10:53:22;13.60;99.90
8565;DHT22;4320;51.498;6.556;2022-12-29T10:55:49;13.70;99.90
8565;DHT22;4320;51.498;6.556;2022-12-29T10:58:16;13.40;99.90
8565;DHT22;4320;51.498;6.556;2022-12-29T11:00:43;13.10;99.90
8565;DHT22;4320;51.498;6.556;2022-12-29T11:08:36;13.10;99.90
8565;DHT22;4320;51.498;6.556;2022-12-29T11:11:06;13.40;99.90
8565;DHT22;4320;51.498;6.556;2022-12-29T11:13:35;13.30;99.90
8565;DHT22;4320;51.498;6.556;2022-12-29T11:16:01;13.10;99.90
8565;DHT22;4320;51.498;6.556;2022-12-29T11:18:37;13.10;99.90
8565;DHT22;4320;51.498;6.556;2022-12-29T11:21:50;13.10;99.90
8565;DHT22;4320;51.498;6.556;2022-12-29T11:24:05;12.90;99.90
8565;DHT22;4320;51.498;6.556;2022-12-29T11:26:32;12.80;99.90
8565;DHT22;4320;51.498;6.556;2022-12-29T11:31:46;12.60;99.90
8565;DHT22;4320;51.498;6.556;2022-12-29T11:36:47;12.60;99.90
8565;DHT22;4320;51.498;6.556;2022-12-29T11:41:56;12.60;99.90
8565;DHT22;4320;51.498;6.556;2022-12-29T11:44:22;12.50;99.90
8565;DHT22;4320;51.498;6.556;2022-12-29T11:46:51;12.50;99.90
8565;DHT22;4320;51.498;6.556;2022-12-29T11:49:22;12.50;99.90
8565;DHT22;4320;51.498;6.556;2022-12-29T11:51:50;12.60;99.90
8565;DHT22;4320;51.498;6.556;2022-12-29T11:54:23;12.50;99.90
8565;DHT22;4320;51.498;6.556;2022-12-29T11:56:49;12.50;99.90
8565;DHT22;4320;51.498;6.556;2022-12-29T12:02:02;12.60;99.90
8565;DHT22;4320;51.498;6.556;2022-12-29T12:04:35;12.80;99.90
8565;DHT22;4320;51.498;6.556;2022-12-29T12:09:57;12.80;99.90
8565;DHT22;4320;51.498;6.556;2022-12-29T12:12:46;12.70;99.90
8565;DHT22;4320;51.498;6.556;2022-12-29T12:15:27;12.50;99.90
8565;DHT22;4320;51.498;6.556;2022-12-29T12:18:10;12.50;99.90
8565;DHT22;4320;51.498;6.556;2022-12-29T12:28:49;12.20;99.90
8565;DHT22;4320;51.498;6.556;2022-12-29T12:31:47;12.20;99.90
8565;DHT22;4320;51.498;6.556;2022-12-29T12:34:24;12.20;99.90
8565;DHT22;4320;51.498;6.556;2022-12-29T12:37:28;12.20;99.90
8565;DHT22;4320;51.498;6.556;2022-12-29T13:11:21;12.30;99.90
8565;DHT22;4320;51.498;6.556;2022-12-29T13:13:46;12.40;99.90
8565;DHT22;4320;51.498;6.556;2022-12-29T13:16:34;12.40;99.90
8565;DHT22;4320;51.498;6.556;2022-12-29T13:21:49;12.30;99.90
8565;DHT22;4320;51.498;6.556;2022-12-29T13:24:32;12.30;99.90
8565;DHT22;4320;51.498;6.556;2022-12-29T13:30:05;12.20;99.90
8565;DHT22;4320;51.498;6.556;2022-12-29T13:32:42;12.40;99.90
8565;DHT22;4320;51.498;6.556;2022-12-29T13:37:58;12.50;99.90
8565;DHT22;4320;51.498;6.556;2022-12-29T13:40:30;12.40;99.90
8565;DHT22;4320;51.498;6.556;2022-12-29T13:43:00;12.30;99.90
8565;DHT22;4320;51.498;6.556;2022-12-29T13:45:29;12.30;99.90
8565;DHT22;4320;51.498;6.556;2022-12-29T13:48:13;12.20;99.90
8565;DHT22;4320;51.498;6.556;2022-12-29T13:50:41;12.20;99.90
8565;DHT22;4320;51.498;6.556;2022-12-29T14:01:27;12.10;99.90
8565;DHT22;4320;51.498;6.556;2022-12-29T14:03:57;12.10;99.90
8565;DHT22;4320;51.498;6.556;2022-12-29T14:06:25;12.00;99.90
8565;DHT22;4320;51.498;6.556;2022-12-29T14:09:00;12.00;99.90
8565;DHT22;4320;51.498;6.556;2022-12-29T14:11:40;11.90;99.90
8565;DHT22;4320;51.498;6.556;2022-12-29T14:16:37;11.90;99.90
8565;DHT22;4320;51.498;6.556;2022-12-29T14:19:09;11.90;99.90
8565;DHT22;4320;51.498;6.556;2022-12-29T14:21:36;11.90;99.90
8565;DHT22;4320;51.498;6.556;2022-12-29T14:37:35;11.80;99.90
8565;DHT22;4320;51.498;6.556;2022-12-29T14:40:19;11.90;99.90
8565;DHT22;4320;51.498;6.556;2022-12-29T14:42:50;11.90;99.90
8565;DHT22;4320;51.498;6.556;2022-12-29T14:47:49;11.80;99.90
8565;DHT22;4320;51.498;6.556;2022-12-29T14:50:24;11.80;99.90
8565;DHT22;4320;51.498;6.556;2022-12-29T14:53:01;11.80;99.90
8565;DHT22;4320;51.498;6.556;2022-12-29T14:55:35;11.80;99.90
8565;DHT22;4320;51.498;6.556;2022-12-29T14:58:05;11.80;99.90
8565;DHT22;4320;51.498;6.556;2022-12-29T15:00:33;11.90;99.90
8565;DHT22;4320;51.498;6.556;2022-12-29T15:03:06;11.90;99.90
8565;DHT22;4320;51.498;6.556;2022-12-29T15:08:09;11.80;99.90
8565;DHT22;4320;51.498;6.556;2022-12-29T15:10:48;11.80;99.90
8565;DHT22;4320;51.498;6.556;2022-12-29T15:13:23;11.80;99.90
8565;DHT22;4320;51.498;6.556;2022-12-29T15:15:48;11.80;99.90
8565;DHT22;4320;51.498;6.556;2022-12-29T15:18:30;11.80;99.90
8565;DHT22;4320;51.498;6.556;2022-12-29T15:20:58;11.80;99.90
8565;DHT22;4320;51.498;6.556;2022-12-29T15:23:25;11.70;99.90
8565;DHT22;4320;51.498;6.556;2022-12-29T15:26:04;11.70;99.90
8565;DHT22;4320;51.498;6.556;2022-12-29T15:28:44;11.70;99.90
8565;DHT22;4320;51.498;6.556;2022-12-29T15:31:15;11.70;99.90
8565;DHT22;4320;51.498;6.556;2022-12-29T15:33:45;11.70;99.90
8565;DHT22;4320;51.498;6.556;2022-12-29T15:36:37;11.60;99.90
8565;DHT22;4320;51.498;6.556;2022-12-29T15:38:59;11.50;99.90
8565;DHT22;4320;51.498;6.556;2022-12-29T15:41:48;11.50;99.90
8565;DHT22;4320;51.498;6.556;2022-12-29T15:44:37;11.50;99.90
8565;DHT22;4320;51.498;6.556;2022-12-29T15:47:08;11.50;99.90
8565;DHT22;4320;51.498;6.556;2022-12-29T15:49:37;11.40;99.90
8565;DHT22;4320;51.498;6.556;2022-12-29T15:52:09;11.40;99.90
8565;DHT22;4320;51.498;6.556;2022-12-29T15:54:36;11.30;99.90
8565;DHT22;4320;51.498;6.556;2022-12-29T15:57:02;11.40;99.90
8565;DHT22;4320;51.498;6.556;2022-12-29T15:59:33;11.40;99.90
8565;DHT22;4320;51.498;6.556;2022-12-29T16:02:00;11.40;99.90
8565;DHT22;4320;51.498;6.556;2022-12-29T16:04:29;11.50;99.90
8565;DHT22;4320;51.498;6.556;2022-12-29T16:07:01;11.50;99.90
8565;DHT22;4320;51.498;6.556;2022-12-29T16:09:41;11.50;99.90
8565;DHT22;4320;51.498;6.556;2022-12-29T16:12:17;11.40;99.90
8565;DHT22;4320;51.498;6.556;2022-12-29T16:14:56;11.40;99.90
8565;DHT22;4320;51.498;6.556;2022-12-29T16:17:28;11.30;99.90
8565;DHT22;4320;51.498;6.556;2022-12-29T16:20:01;11.20;99.90
8565;DHT22;4320;51.498;6.556;2022-12-29T16:22:38;11.10;99.90
8565;DHT22;4320;51.498;6.556;2022-12-29T16:25:30;11.10;99.90
8565;DHT22;4320;51.498;6.556;2022-12-29T16:27:58;10.90;99.90
8565;DHT22;4320;51.498;6.556;2022-12-29T16:30:26;10.80;99.90
8565;DHT22;4320;51.498;6.556;2022-12-29T16:32:54;10.70;99.90
8565;DHT22;4320;51.498;6.556;2022-12-29T16:35:28;10.60;99.90
8565;DHT22;4320;51.498;6.556;2022-12-29T16:38:18;10.40;99.90
8565;DHT22;4320;51.498;6.556;2022-12-29T16:43:36;10.20;99.90
8565;DHT22;4320;51.498;6.556;2022-12-29T16:46:24;10.10;99.90
8565;DHT22;4320;51.498;6.556;2022-12-29T16:48:56;10.10;99.90
8565;DHT22;4320;51.498;6.556;2022-12-29T16:51:48;10.00;99.90
8565;DHT22;4320;51.498;6.556;2022-12-29T16:54:26;9.90;99.90
8565;DHT22;4320;51.498;6.556;2022-12-29T16:56:52;9.80;99.90
8565;DHT22;4320;51.498;6.556;2022-12-29T17:01:51;9.60;99.90
8565;DHT22;4320;51.498;6.556;2022-12-29T17:04:17;9.50;1.00
8565;DHT22;4320;51.498;6.556;2022-12-29T17:06:42;9.50;1.00
8565;DHT22;4320;51.498;6.556;2022-12-29T17:09:23;9.40;1.00
8565;DHT22;4320;51.498;6.556;2022-12-29T17:11:51;9.40;1.00
8565;DHT22;4320;51.498;6.556;2022-12-29T17:14:44;9.30;1.00
8565;DHT22;4320;51.498;6.556;2022-12-29T17:17:40;9.30;1.00
8565;DHT22;4320;51.498;6.556;2022-12-29T17:22:43;9.30;1.00
8565;DHT22;4320;51.498;6.556;2022-12-29T17:25:16;9.20;1.00
8565;DHT22;4320;51.498;6.556;2022-12-29T17:28:01;9.20;1.00
8565;DHT22;4320;51.498;6.556;2022-12-29T17:30:29;9.20;99.90
8565;DHT22;4320;51.498;6.556;2022-12-29T17:33:11;9.20;1.00
8565;DHT22;4320;51.498;6.556;2022-12-29T17:35:38;9.20;1.00
8565;DHT22;4320;51.498;6.556;2022-12-29T17:38:19;9.20;1.00
8565;DHT22;4320;51.498;6.556;2022-12-29T17:40:44;9.20;1.00
8565;DHT22;4320;51.498;6.556;2022-12-29T17:43:13;9.20;1.00
8565;DHT22;4320;51.498;6.556;2022-12-29T17:45:39;9.20;1.00
8565;DHT22;4320;51.498;6.556;2022-12-29T17:48:16;9.10;1.00
8565;DHT22;4320;51.498;6.556;2022-12-29T17:50:43;9.20;1.00
8565;DHT22;4320;51.498;6.556;2022-12-29T17:53:17;9.20;1.00
8565;DHT22;4320;51.498;6.556;2022-12-29T17:55:44;9.10;1.00
8565;DHT22;4320;51.498;6.556;2022-12-29T18:00:47;9.10;1.00
8565;DHT22;4320;51.498;6.556;2022-12-29T18:03:20;9.10;1.00
8565;DHT22;4320;51.498;6.556;2022-12-29T18:05:47;9.10;1.00
8565;DHT22;4320;51.498;6.556;2022-12-29T18:08:14;9.00;1.00
8565;DHT22;4320;51.498;6.556;2022-12-29T18:10:40;9.10;1.00
8565;DHT22;4320;51.498;6.556;2022-12-29T18:13:06;9.00;1.00
8565;DHT22;4320;51.498;6.556;2022-12-29T18:15:33;9.00;1.00
8565;DHT22;4320;51.498;6.556;2022-12-29T18:20:30;8.90;1.00
8565;DHT22;4320;51.498;6.556;2022-12-29T18:22:56;8.90;1.00
8565;DHT22;4320;51.498;6.556;2022-12-29T18:27:58;8.90;1.00
8565;DHT22;4320;51.498;6.556;2022-12-29T18:30:23;8.90;1.00
8565;DHT22;4320;51.498;6.556;2022-12-29T18:32:49;8.90;1.00
8565;DHT22;4320;51.498;6.556;2022-12-29T18:38:15;8.90;1.00
8565;DHT22;4320;51.498;6.556;2022-12-29T18:40:40;8.80;1.00
8565;DHT22;4320;51.498;6.556;2022-12-29T18:43:06;8.90;1.00
8565;DHT22;4320;51.498;6.556;2022-12-29T18:45:32;8.90;1.00
8565;DHT22;4320;51.498;6.556;2022-12-29T18:47:59;8.80;1.00
8565;DHT22;4320;51.498;6.556;2022-12-29T18:50:25;8.80;1.00
8565;DHT22;4320;51.498;6.556;2022-12-29T18:52:51;8.80;1.00
8565;DHT22;4320;51.498;6.556;2022-12-29T18:55:22;8.80;1.00
8565;DHT22;4320;51.498;6.556;2022-12-29T18:57:49;8.80;1.00
8565;DHT22;4320;51.498;6.556;2022-12-29T19:00:16;8.80;1.00
8565;DHT22;4320;51.498;6.556;2022-12-29T19:02:43;8.70;1.00
8565;DHT22;4320;51.498;6.556;2022-12-29T19:05:26;8.70;1.00
8565;DHT22;4320;51.498;6.556;2022-12-29T19:07:53;8.70;1.00
8565;DHT22;4320;51.498;6.556;2022-12-29T19:10:20;8.70;1.00
8565;DHT22;4320;51.498;6.556;2022-12-29T19:12:46;8.70;1.00
8565;DHT22;4320;51.498;6.556;2022-12-29T19:15:30;8.70;1.00
8565;DHT22;4320;51.498;6.556;2022-12-29T19:17:57;8.70;99.90
8565;DHT22;4320;51.498;6.556;2022-12-29T19:20:32;8.70;99.90
8565;DHT22;4320;51.498;6.556;2022-12-29T19:23:01;8.70;99.90
8565;DHT22;4320;51.498;6.556;2022-12-29T19:25:27;8.70;99.90